Terminal Aerodrome Forecast
Issued by NWS

Home | Current Version | Previous Version | Text Only | Print | Product List | Glossary Off
Versions: 1 2 3 4 5 6 7 8 9 10 11 12 13 14 15 16 17

000
FTUS41 KCLE 291728
TAFFDY
TAF
KFDY 291728Z 2918/3018 15010KT 6SM -SHRA BR OVC100
      TEMPO 2918/2920 4SM -RA BR OVC050
     FM292000 10010KT 6SM BR VCSH OVC050
     FM300600 22004KT 5SM BR OVC007
     FM301500 24006KT P6SM VCSH OVC015=

USA.gov is the U.S. government's official web portal to all federal, state and local government web resources and services.